Hauptseite
METAR-TAF:

METAR-TAF

Flughäfen :

Bournemouth, England

Bournemouth Airport

Breite: 50-47N, Länge: 001-50W, Höhe: 11 m

Beobachtung

Neuester Wetterbericht von vor 34 Minuten, um 09:20 UTC
Wind 4 kt aus unterschiedlichen Richtungen
Temperatur 19°C
Luftfeuchtigkeit 64%
Luftdruck 1023 hPa
Sichtweite 10 km oder mehr
keine Wolken unter 1500 m und keine Kumulonimbus oder Gewitterwolken

METAR: EGHH 190920Z VRB04KT CAVOK 19/12 Q1023

Zeit: 10:54 (09:54 UTC)

Prognose

Neuester Wetterbericht von vor 1 Stunde und 51 Minuten, um 08:03 UTC
Gültige Prognose vom 19 um 09 UTC bis 19 um 18 UTC
Wind 7 kt aus Süd
Sichtweite 10 km oder mehr
keine Wolken unter 1500 m und keine Kumulonimbus oder Gewitterwolken

TAF: EGHH 190803Z 1909/1918 17007KT CAVOK

Wetterbeobachtungen und Prognosen von mehr als 4000 Flughäfen (METAR und TAF Bericht).

Die verfügbaren Stationen werden durch gelbe und rote Markierungen auf der Karte dargestellt.

Führen Sie die Maus auf sie, um den Namen der Station zu sehen.

Darauf klicken, um die Beobachtung von Wetterbeobachtungen und Prognosen zu sehen.

Um die Karte zu ändern : klicken Sie auf den grünen Tasten mit einem schwarzen Kreuz Zum Vergrößern, auf den grünen Button mit einem Gedankenstrich zu verkleinern, oder auf die grünen Pfeile für benachbarte Karten.


METAR-TAF: